createdAt,value
2018-11-10T00:01:02.957Z,98052.72
2018-11-10T00:03:15.135Z,98047.25
2018-11-10T00:05:27.383Z,98040.55
2018-11-10T00:07:39.647Z,98039.48
2018-11-10T00:09:51.869Z,98044.50
2018-11-10T00:12:04.221Z,98041.09
2018-11-10T00:14:16.424Z,98033.87
2018-11-10T00:16:28.670Z,98034.89
2018-11-10T00:18:40.833Z,98029.27
2018-11-10T00:20:53.065Z,98036.01
2018-11-10T00:23:05.368Z,98033.60
2018-11-10T00:25:17.588Z,98042.31
2018-11-10T00:27:29.759Z,98045.55
2018-11-10T00:29:41.964Z,98048.17
2018-11-10T00:31:54.149Z,98044.81
2018-11-10T00:34:06.373Z,98045.59
2018-11-10T00:36:18.582Z,98045.22
2018-11-10T00:38:30.875Z,98040.23
2018-11-10T00:40:43.207Z,98040.86
2018-11-10T00:42:55.457Z,98041.38
2018-11-10T00:45:08.114Z,98039.86
2018-11-10T00:47:20.383Z,98034.72
2018-11-10T00:49:32.786Z,98021.20
2018-11-10T00:51:45.042Z,98014.58
2018-11-10T00:53:57.277Z,98025.04
2018-11-10T00:56:09.528Z,98020.70
2018-11-10T00:58:21.795Z,98015.45
2018-11-10T01:00:34.038Z,98011.91
2018-11-10T01:02:46.251Z,98009.27
2018-11-10T01:04:58.487Z,98003.00
2018-11-10T01:07:11.107Z,97998.84
2018-11-10T01:09:23.327Z,98001.67
2018-11-10T01:11:35.553Z,98004.23
2018-11-10T01:13:47.775Z,97998.55
2018-11-10T01:15:59.949Z,97999.39
2018-11-10T01:18:12.158Z,98005.55
2018-11-10T01:20:24.399Z,98005.55
2018-11-10T01:22:36.882Z,98004.48
2018-11-10T01:24:49.072Z,98004.33
2018-11-10T01:27:01.271Z,97988.73
2018-11-10T01:29:13.529Z,97990.13
2018-11-10T01:31:25.741Z,97984.48
2018-11-10T01:33:37.901Z,97979.86
2018-11-10T01:35:50.084Z,97979.39
2018-11-10T01:38:02.270Z,97970.95
2018-11-10T01:40:14.811Z,97962.39
2018-11-10T01:42:27.109Z,97955.77
2018-11-10T01:44:39.395Z,97953.59
2018-11-10T01:46:51.694Z,97961.93
2018-11-10T01:49:04.197Z,97960.81
2018-11-10T01:51:16.450Z,97970.53
2018-11-10T01:53:28.663Z,97955.04
2018-11-10T01:55:40.867Z,97951.09
2018-11-10T01:57:53.108Z,97952.83
2018-11-10T02:00:09.019Z,97967.02
2018-11-10T02:02:21.253Z,97961.64
2018-11-10T02:04:33.444Z,97946.00
2018-11-10T02:06:45.796Z,97945.23
2018-11-10T02:08:58.008Z,97941.28
2018-11-10T02:11:10.240Z,97934.52
2018-11-10T02:13:22.431Z,97925.70
2018-11-10T02:15:34.623Z,97931.80
2018-11-10T02:17:46.822Z,97926.85
2018-11-10T02:19:59.111Z,97918.77
2018-11-10T02:22:11.383Z,97907.67
2018-11-10T02:24:23.608Z,97908.28
2018-11-10T02:26:35.859Z,97890.48
2018-11-10T02:28:48.130Z,97884.63
2018-11-10T02:31:00.325Z,97887.58
2018-11-10T02:33:12.518Z,97887.27
2018-11-10T02:35:24.700Z,97878.53
2018-11-10T02:37:38.634Z,97868.31
2018-11-10T02:39:50.819Z,97856.17
2018-11-10T02:42:03.032Z,97852.50
2018-11-10T02:44:15.236Z,97860.25
2018-11-10T02:46:27.450Z,97854.97
2018-11-10T02:48:39.663Z,97864.75
2018-11-10T02:50:51.879Z,97878.07
2018-11-10T02:53:04.076Z,97884.38
2018-11-10T02:55:16.318Z,97882.16
2018-11-10T02:57:28.491Z,97891.98
2018-11-10T02:59:40.711Z,97892.03
2018-11-10T03:01:53.173Z,97889.89
2018-11-10T03:04:05.847Z,97892.69
2018-11-10T03:06:18.079Z,97886.33
2018-11-10T03:08:30.262Z,97887.46
2018-11-10T03:10:42.537Z,97885.02
2018-11-10T03:12:54.671Z,97859.82
2018-11-10T03:15:07.532Z,97858.30
2018-11-10T03:17:19.711Z,97867.34
2018-11-10T03:19:31.916Z,97901.50
2018-11-10T03:21:44.143Z,97905.77
2018-11-10T03:23:56.351Z,97896.92
2018-11-10T03:26:08.537Z,97911.38
2018-11-10T03:28:20.759Z,97914.55
2018-11-10T03:30:33.159Z,97911.75
2018-11-10T03:32:45.443Z,97892.22
2018-11-10T03:34:57.643Z,97900.72
2018-11-10T03:37:09.847Z,97915.19
2018-11-10T03:39:22.032Z,97906.19
2018-11-10T03:41:34.230Z,97898.69
2018-11-10T03:43:46.435Z,97894.14
2018-11-10T03:45:58.597Z,97883.03
2018-11-10T03:48:10.814Z,97873.26
2018-11-10T03:50:23.010Z,97878.80
2018-11-10T03:52:35.446Z,97883.23
2018-11-10T03:54:47.716Z,97876.00
2018-11-10T03:56:59.909Z,97874.25
2018-11-10T03:59:12.096Z,97874.80
2018-11-10T04:01:24.397Z,97873.97
2018-11-10T04:03:36.626Z,97876.83
2018-11-10T04:05:48.834Z,97879.41
2018-11-10T04:08:01.033Z,97876.31
2018-11-10T04:10:13.929Z,97877.14
2018-11-10T04:12:26.149Z,97894.70
2018-11-10T04:14:38.330Z,97896.36
2018-11-10T04:16:50.525Z,97900.54
2018-11-10T04:19:02.727Z,97898.63
2018-11-10T04:21:15.105Z,97892.91
2018-11-10T04:23:27.287Z,97876.05
2018-11-10T04:25:39.456Z,97881.13
2018-11-10T04:27:51.666Z,97867.22
2018-11-10T04:30:05.438Z,97861.53
2018-11-10T04:32:17.687Z,97847.28
2018-11-10T04:34:29.864Z,97846.35
2018-11-10T04:36:42.054Z,97840.97
2018-11-10T04:38:54.289Z,97835.44
2018-11-10T04:41:06.818Z,97833.10
2018-11-10T04:43:19.024Z,97832.06
2018-11-10T04:45:31.239Z,97825.20
2018-11-10T04:47:43.687Z,97825.50
2018-11-10T04:49:55.933Z,97823.31
2018-11-10T04:52:08.621Z,97828.42
2018-11-10T04:54:20.818Z,97834.32
2018-11-10T04:56:33.017Z,97831.00
2018-11-10T04:58:45.215Z,97822.73
2018-11-10T05:00:57.441Z,97815.44
2018-11-10T05:03:09.637Z,97819.75
2018-11-10T05:05:21.857Z,97818.45
2018-11-10T05:07:34.060Z,97816.33
2018-11-10T05:09:46.256Z,97805.55
2018-11-10T05:11:58.430Z,97798.54
2018-11-10T05:14:10.638Z,97786.36
2018-11-10T05:16:22.818Z,97786.74
2018-11-10T05:18:35.058Z,97777.58
2018-11-10T05:20:47.258Z,97764.93
2018-11-10T05:22:59.485Z,97760.22
2018-11-10T05:25:11.693Z,97769.45
2018-11-10T05:27:23.887Z,97788.40
2018-11-10T05:29:36.053Z,97803.56
2018-11-10T05:31:48.267Z,97822.21
2018-11-10T05:34:00.462Z,97816.33
2018-11-10T05:36:12.688Z,97824.28
2018-11-10T05:38:24.887Z,97805.59
2018-11-10T05:40:37.071Z,97802.84
2018-11-10T05:42:49.294Z,97806.72
2018-11-10T05:45:01.527Z,97807.01
2018-11-10T05:47:13.719Z,97810.06
2018-11-10T05:49:25.898Z,97805.25
2018-11-10T05:51:38.113Z,97811.53
2018-11-10T05:53:50.308Z,97807.46
2018-11-10T05:56:02.499Z,97805.82
2018-11-10T05:58:14.751Z,97805.61
2018-11-10T06:00:26.942Z,97807.56
2018-11-10T06:02:39.161Z,97802.48
2018-11-10T06:04:51.360Z,97801.94
2018-11-10T06:07:03.560Z,97806.82
2018-11-10T06:09:15.867Z,97800.81
2018-11-10T06:11:28.042Z,97806.18
2018-11-10T06:13:40.222Z,97805.42
2018-11-10T06:15:52.486Z,97804.41
2018-11-10T06:18:04.758Z,97809.12
2018-11-10T06:20:16.929Z,97813.37
2018-11-10T06:22:29.207Z,97809.25
2018-11-10T06:24:41.403Z,97810.25
2018-11-10T06:26:53.620Z,97809.96
2018-11-10T06:29:05.954Z,97806.72
2018-11-10T06:31:18.147Z,97809.31
2018-11-10T06:33:30.342Z,97809.59
2018-11-10T06:35:42.611Z,97800.73
2018-11-10T06:37:54.838Z,97798.27
2018-11-10T06:40:08.684Z,97804.73
2018-11-10T06:42:20.873Z,97795.67
2018-11-10T06:44:33.199Z,97795.50
2018-11-10T06:46:45.397Z,97796.22
2018-11-10T06:48:57.612Z,97798.98
2018-11-10T06:51:09.859Z,97794.64
2018-11-10T06:53:22.066Z,97795.03
2018-11-10T06:55:34.255Z,97799.64
2018-11-10T06:57:46.481Z,97803.45
2018-11-10T06:59:58.678Z,97798.09
2018-11-10T07:02:10.888Z,97789.39
2018-11-10T07:04:23.118Z,97793.64
2018-11-10T07:06:35.338Z,97796.59
2018-11-10T07:08:47.643Z,97794.20
2018-11-10T07:10:59.869Z,97796.22
2018-11-10T07:13:12.050Z,97801.22
2018-11-10T07:15:24.254Z,97798.63
2018-11-10T07:17:36.636Z,97801.98
2018-11-10T07:19:48.763Z,97810.66
2018-11-10T07:22:00.958Z,97805.86
2018-11-10T07:24:13.182Z,97808.27
2018-11-10T07:26:25.390Z,97802.62
2018-11-10T07:28:37.602Z,97806.33
2018-11-10T07:30:49.839Z,97813.24
2018-11-10T07:33:02.112Z,97809.75
2018-11-10T07:35:14.335Z,97812.70
2018-11-10T07:37:26.582Z,97818.53
2018-11-10T07:39:38.829Z,97815.28
2018-11-10T07:41:51.100Z,97807.03
2018-11-10T07:44:03.375Z,97811.74
2018-11-10T07:46:15.610Z,97816.91
2018-11-10T07:48:27.839Z,97815.25
2018-11-10T07:50:40.056Z,97816.91
2018-11-10T07:52:52.380Z,97807.56
2018-11-10T07:55:05.392Z,97812.08
2018-11-10T07:57:17.616Z,97805.08
2018-11-10T07:59:29.890Z,97800.88
2018-11-10T08:01:42.130Z,97798.56
2018-11-10T08:03:54.330Z,97792.98
2018-11-10T08:06:06.615Z,97796.28
2018-11-10T08:08:19.003Z,97795.67
2018-11-10T08:10:31.260Z,97798.33
2018-11-10T08:12:43.519Z,97802.19
2018-11-10T08:14:55.736Z,97807.63
2018-11-10T08:17:07.988Z,97811.06
2018-11-10T08:19:20.250Z,97817.60
2018-11-10T08:21:32.511Z,97819.30
2018-11-10T08:23:44.747Z,97820.08
2018-11-10T08:25:56.941Z,97820.98
2018-11-10T08:28:09.164Z,97822.76
2018-11-10T08:30:21.465Z,97824.17
2018-11-10T08:32:33.702Z,97840.38
2018-11-10T08:34:45.965Z,97832.31
2018-11-10T08:36:58.275Z,97826.96
2018-11-10T08:39:10.898Z,97833.45
2018-11-10T08:41:23.070Z,97830.94
2018-11-10T08:43:35.278Z,97824.72
2018-11-10T08:45:47.822Z,97831.21
2018-11-10T08:48:00.065Z,97834.55
2018-11-10T08:50:13.446Z,97831.84
2018-11-10T08:52:25.751Z,97829.68
2018-11-10T08:54:39.863Z,97828.45
2018-11-10T08:56:52.242Z,97828.70
2018-11-10T08:59:04.587Z,97829.52
2018-11-10T09:01:16.826Z,97826.26
2018-11-10T09:03:29.084Z,97818.38
2018-11-10T09:05:41.390Z,97815.24
2018-11-10T09:07:53.612Z,97815.98
2018-11-10T09:10:07.581Z,97816.61
2018-11-10T09:12:19.801Z,97818.19
2018-11-10T09:14:32.051Z,97823.18
2018-11-10T09:16:44.306Z,97826.84
2018-11-10T09:18:56.531Z,97825.93
2018-11-10T09:21:08.854Z,97826.91
2018-11-10T09:23:21.086Z,97836.43
2018-11-10T09:25:33.371Z,97834.10
2018-11-10T09:27:45.657Z,97832.37
2018-11-10T09:29:57.899Z,97827.12
2018-11-10T09:32:10.145Z,97825.05
2018-11-10T09:34:22.387Z,97825.23
2018-11-10T09:36:34.621Z,97819.83
2018-11-10T09:38:46.810Z,97822.97
2018-11-10T09:40:59.050Z,97819.95
2018-11-10T09:43:11.332Z,97810.19
2018-11-10T09:45:23.588Z,97811.90
2018-11-10T09:47:36.059Z,97814.73
2018-11-10T09:49:48.320Z,97814.32
2018-11-10T09:52:01.447Z,97807.17
2018-11-10T09:54:13.671Z,97804.98
2018-11-10T09:56:25.895Z,97798.44
2018-11-10T09:58:38.179Z,97795.88
2018-11-10T10:00:50.460Z,97802.08
2018-11-10T10:03:02.720Z,97797.26
2018-11-10T10:05:14.958Z,97793.95
2018-11-10T10:07:28.215Z,97786.39
2018-11-10T10:09:40.467Z,97792.80
2018-11-10T10:11:52.709Z,97790.09
2018-11-10T10:14:06.118Z,97773.30
2018-11-10T10:16:19.684Z,97777.82
2018-11-10T10:18:31.693Z,97776.45
2018-11-10T10:20:44.001Z,97775.98
2018-11-10T10:22:56.275Z,97772.66
2018-11-10T10:25:10.120Z,97775.23
2018-11-10T10:27:22.378Z,97770.56
2018-11-10T10:29:34.630Z,97769.26
2018-11-10T10:31:46.854Z,97766.95
2018-11-10T10:33:59.158Z,97763.47
2018-11-10T10:36:11.354Z,97757.73
2018-11-10T10:38:23.635Z,97761.02
2018-11-10T10:40:35.897Z,97753.60
2018-11-10T10:42:48.386Z,97753.60
2018-11-10T10:45:00.552Z,97745.92
2018-11-10T10:47:12.813Z,97745.98
2018-11-10T10:49:25.127Z,97744.37
2018-11-10T10:51:37.411Z,97744.20
2018-11-10T10:53:49.706Z,97747.53
2018-11-10T10:56:02.057Z,97738.13
2018-11-10T10:58:14.199Z,97728.91
2018-11-10T11:00:32.063Z,97733.06
2018-11-10T11:02:50.079Z,97724.81
2018-11-10T11:05:08.720Z,97723.67
2018-11-10T11:07:21.418Z,97714.70
2018-11-10T11:09:33.682Z,97717.02
2018-11-10T11:11:45.988Z,97707.41
2018-11-10T11:13:58.240Z,97702.59
2018-11-10T11:16:10.573Z,97701.36
2018-11-10T11:18:22.779Z,97695.02
2018-11-10T11:20:35.006Z,97704.17
2018-11-10T11:22:47.337Z,97695.09
2018-11-10T11:24:59.619Z,97689.08
2018-11-10T11:27:12.222Z,97692.37
2018-11-10T11:29:24.544Z,97693.78
2018-11-10T11:31:36.737Z,97697.36
2018-11-10T11:33:49.082Z,97691.36
2018-11-10T11:36:01.215Z,97695.02
2018-11-10T11:38:13.530Z,97691.64
2018-11-10T11:40:25.832Z,97689.30
2018-11-10T11:42:38.192Z,97692.37
2018-11-10T11:44:50.406Z,97688.51
2018-11-10T11:47:02.658Z,97679.48
2018-11-10T11:49:14.886Z,97679.34
2018-11-10T11:51:27.137Z,97681.69
2018-11-10T11:53:39.367Z,97670.72
2018-11-10T11:55:51.586Z,97673.48
2018-11-10T11:58:04.044Z,97673.42
2018-11-10T12:00:17.004Z,97674.91
2018-11-10T12:02:29.266Z,97674.30
2018-11-10T12:04:41.625Z,97676.87
2018-11-10T12:06:53.812Z,97674.37
2018-11-10T12:09:07.835Z,97673.70
2018-11-10T12:11:20.035Z,97668.80
2018-11-10T12:13:32.289Z,97667.27
2018-11-10T12:15:44.515Z,97665.78
2018-11-10T12:17:56.758Z,97668.25
2018-11-10T12:20:10.667Z,97665.62
2018-11-10T12:22:22.874Z,97664.31
2018-11-10T12:24:35.224Z,97666.45
2018-11-10T12:26:47.459Z,97662.24
2018-11-10T12:28:59.774Z,97661.42
2018-11-10T12:31:12.017Z,97659.14
2018-11-10T12:33:24.335Z,97662.79
2018-11-10T12:35:36.573Z,97658.91
2018-11-10T12:37:48.846Z,97657.27
2018-11-10T12:40:01.130Z,97659.25
2018-11-10T12:42:13.392Z,97654.09
2018-11-10T12:44:25.654Z,97657.53
2018-11-10T12:46:38.307Z,97657.38
2018-11-10T12:48:50.557Z,97655.25
2018-11-10T12:51:02.876Z,97650.98
2018-11-10T12:53:15.135Z,97650.62
2018-11-10T12:55:27.358Z,97641.66
2018-11-10T12:57:39.865Z,97660.70
2018-11-10T12:59:52.061Z,97649.23
2018-11-10T13:02:05.446Z,97648.63
2018-11-10T13:04:17.707Z,97653.12
2018-11-10T13:06:30.035Z,97653.61
2018-11-10T13:08:42.309Z,97640.68
2018-11-10T13:10:54.643Z,97640.83
2018-11-10T13:13:06.777Z,97633.67
2018-11-10T13:15:19.025Z,97637.06
2018-11-10T13:17:31.409Z,97644.22
2018-11-10T13:19:43.623Z,97648.09
2018-11-10T13:21:55.839Z,97646.63
2018-11-10T13:24:11.817Z,97636.64
2018-11-10T13:26:24.054Z,97637.39
2018-11-10T13:28:36.264Z,97638.83
2018-11-10T13:30:48.579Z,97643.89
2018-11-10T13:33:00.774Z,97647.28
2018-11-10T13:35:16.523Z,97650.79
2018-11-10T13:37:30.430Z,97651.92
2018-11-10T13:39:42.663Z,97657.55
2018-11-10T13:41:54.933Z,97654.23
2018-11-10T13:44:07.273Z,97650.94
2018-11-10T13:46:19.492Z,97653.08
2018-11-10T13:48:31.739Z,97652.92
2018-11-10T13:50:44.054Z,97655.54
2018-11-10T13:52:58.758Z,97653.89
2018-11-10T13:55:11.283Z,97653.41
2018-11-10T13:57:23.519Z,97659.95
2018-11-10T13:59:35.802Z,97660.17
2018-11-10T14:01:48.026Z,97667.00
2018-11-10T14:04:00.276Z,97662.73
2018-11-10T14:06:12.565Z,97665.35
2018-11-10T14:08:24.794Z,97661.91
2018-11-10T14:10:37.093Z,97665.08
2018-11-10T14:12:49.424Z,97664.75
2018-11-10T14:15:01.661Z,97664.69
2018-11-10T14:17:14.082Z,97668.41
2018-11-10T14:19:26.302Z,97666.02
2018-11-10T14:21:38.535Z,97667.55
2018-11-10T14:23:50.820Z,97665.02
2018-11-10T14:26:03.087Z,97675.28
2018-11-10T14:28:15.339Z,97672.33
2018-11-10T14:30:27.582Z,97676.38
2018-11-10T14:32:40.537Z,97676.33
2018-11-10T14:34:52.825Z,97671.52
2018-11-10T14:37:05.168Z,97673.70
2018-11-10T14:39:27.256Z,97673.80
2018-11-10T14:41:39.534Z,97675.98
2018-11-10T14:43:51.856Z,97674.61
2018-11-10T14:46:04.168Z,97677.16
2018-11-10T14:48:16.416Z,97678.74
2018-11-10T14:50:28.683Z,97676.55
2018-11-10T14:52:41.353Z,97684.67
2018-11-10T14:54:53.470Z,97683.97
2018-11-10T14:57:05.767Z,97682.59
2018-11-10T14:59:17.980Z,97678.59
2018-11-10T15:01:31.618Z,97682.45
2018-11-10T15:03:43.884Z,97691.06
2018-11-10T15:05:56.083Z,97690.36
2018-11-10T15:08:08.340Z,97700.97
2018-11-10T15:10:20.589Z,97693.88
2018-11-10T15:12:32.836Z,97694.14
2018-11-10T15:14:45.098Z,97694.89
2018-11-10T15:16:57.397Z,97692.84
2018-11-10T15:19:09.678Z,97694.90
2018-11-10T15:21:21.899Z,97693.03
2018-11-10T15:23:34.150Z,97699.31
2018-11-10T15:25:46.434Z,97703.42
2018-11-10T15:27:58.704Z,97700.61
2018-11-10T15:30:13.144Z,97701.28
2018-11-10T15:32:25.378Z,97702.99
2018-11-10T15:34:37.762Z,97705.16
2018-11-10T15:36:50.120Z,97702.45
2018-11-10T15:39:02.735Z,97697.41
2018-11-10T15:41:14.947Z,97694.63
2018-11-10T15:43:27.233Z,97692.44
2018-11-10T15:45:39.721Z,97692.35
2018-11-10T15:47:53.046Z,97702.00
2018-11-10T15:50:06.430Z,97700.27
2018-11-10T15:52:18.700Z,97702.08
2018-11-10T15:54:30.937Z,97700.80
2018-11-10T15:56:43.199Z,97698.09
2018-11-10T15:58:55.444Z,97694.56
2018-11-10T16:01:07.678Z,97692.33
2018-11-10T16:03:19.904Z,97689.97
2018-11-10T16:05:32.174Z,97685.37
2018-11-10T16:07:44.423Z,97690.70
2018-11-10T16:09:57.128Z,97692.73
2018-11-10T16:12:09.327Z,97691.58
2018-11-10T16:14:21.551Z,97696.46
2018-11-10T16:16:36.817Z,97702.41
2018-11-10T16:18:48.993Z,97707.30
2018-11-10T16:21:01.336Z,97711.59
2018-11-10T16:23:13.515Z,97715.03
2018-11-10T16:25:25.751Z,97704.29
2018-11-10T16:27:38.044Z,97705.95
2018-11-10T16:29:50.303Z,97704.67
2018-11-10T16:32:02.595Z,97700.05
2018-11-10T16:34:14.906Z,97703.72
2018-11-10T16:36:29.946Z,97708.25
2018-11-10T16:38:42.194Z,97712.64
2018-11-10T16:40:54.454Z,97707.66
2018-11-10T16:43:06.711Z,97707.08
2018-11-10T16:45:21.627Z,97704.13
2018-11-10T16:47:34.043Z,97706.84
2018-11-10T16:49:46.322Z,97706.39
2018-11-10T16:51:58.683Z,97707.11
2018-11-10T16:54:10.948Z,97704.84
2018-11-10T16:56:23.183Z,97704.15
2018-11-10T16:58:35.476Z,97702.84
2018-11-10T17:00:47.732Z,97707.47
2018-11-10T17:02:59.965Z,97707.95
2018-11-10T17:05:12.302Z,97706.27
2018-11-10T17:07:24.622Z,97711.62
2018-11-10T17:09:37.014Z,97714.33
2018-11-10T17:11:49.419Z,97709.84
2018-11-10T17:14:01.655Z,97712.45
2018-11-10T17:16:13.879Z,97708.98
2018-11-10T17:18:26.154Z,97709.72
2018-11-10T17:20:38.427Z,97711.61
2018-11-10T17:22:50.861Z,97710.75
2018-11-10T17:25:03.146Z,97712.40
2018-11-10T17:27:15.395Z,97715.97
2018-11-10T17:29:27.651Z,97712.53
2018-11-10T17:31:39.904Z,97723.10
2018-11-10T17:33:52.180Z,97727.22
2018-11-10T17:36:04.762Z,97720.22
2018-11-10T17:38:17.054Z,97725.92
2018-11-10T17:40:29.359Z,97720.22
2018-11-10T17:42:41.706Z,97718.78
2018-11-10T17:44:53.958Z,97726.41
2018-11-10T17:47:06.250Z,97731.16
2018-11-10T17:49:18.579Z,97728.55
2018-11-10T17:51:30.854Z,97735.55
2018-11-10T17:53:43.130Z,97734.49
2018-11-10T17:55:55.366Z,97741.49
2018-11-10T17:58:07.660Z,97739.22
2018-11-10T18:00:19.923Z,97739.83
2018-11-10T18:02:32.180Z,97735.66
2018-11-10T18:04:44.470Z,97736.02
2018-11-10T18:06:56.746Z,97738.98
2018-11-10T18:09:10.209Z,97739.34
2018-11-10T18:11:22.449Z,97741.98
2018-11-10T18:13:35.691Z,97741.01
2018-11-10T18:15:47.934Z,97739.49
2018-11-10T18:18:00.246Z,97748.01
2018-11-10T18:20:14.823Z,97741.84
2018-11-10T18:22:27.069Z,97748.95
2018-11-10T18:24:39.322Z,97737.93
2018-11-10T18:26:51.565Z,97741.10
2018-11-10T18:29:03.839Z,97738.63
2018-11-10T18:31:16.107Z,97746.56
2018-11-10T18:33:28.336Z,97748.90
2018-11-10T18:35:40.663Z,97751.86
2018-11-10T18:37:52.917Z,97755.08
2018-11-10T18:40:05.528Z,97762.41
2018-11-10T18:42:17.704Z,97758.39
2018-11-10T18:44:29.971Z,97751.15
2018-11-10T18:46:42.279Z,97747.23
2018-11-10T18:48:54.522Z,97751.15
2018-11-10T18:51:06.868Z,97758.24
2018-11-10T18:53:19.092Z,97755.01
2018-11-10T18:55:31.396Z,97761.27
2018-11-10T18:57:44.276Z,97758.64
2018-11-10T18:59:56.354Z,97767.05
2018-11-10T19:02:08.647Z,97759.72
2018-11-10T19:04:20.923Z,97770.70
2018-11-10T19:06:33.195Z,97767.84
2018-11-10T19:08:45.415Z,97764.86
2018-11-10T19:10:57.750Z,97765.38
2018-11-10T19:13:10.076Z,97761.34
2018-11-10T19:15:22.300Z,97756.48
2018-11-10T19:17:34.604Z,97752.89
2018-11-10T19:19:46.852Z,97757.94
2018-11-10T19:21:59.107Z,97752.59
2018-11-10T19:24:11.339Z,97753.80
2018-11-10T19:26:23.580Z,97755.33
2018-11-10T19:28:35.838Z,97755.20
2018-11-10T19:30:48.061Z,97758.27
2018-11-10T19:33:00.319Z,97756.97
2018-11-10T19:35:13.108Z,97751.16
2018-11-10T19:37:25.416Z,97751.38
2018-11-10T19:39:37.611Z,97755.66
2018-11-10T19:41:49.851Z,97750.81
2018-11-10T19:44:02.069Z,97751.25
2018-11-10T19:46:14.343Z,97743.31
2018-11-10T19:48:26.620Z,97742.70
2018-11-10T19:50:38.881Z,97748.95
2018-11-10T19:52:51.127Z,97752.50
2018-11-10T19:55:04.054Z,97742.78
2018-11-10T19:57:16.810Z,97741.44
2018-11-10T19:59:29.040Z,97741.09
2018-11-10T20:01:41.323Z,97745.39
2018-11-10T20:03:53.649Z,97748.67
2018-11-10T20:06:05.936Z,97745.47
2018-11-10T20:08:18.239Z,97746.98
2018-11-10T20:10:30.524Z,97740.60
2018-11-10T20:12:43.043Z,97742.81
2018-11-10T20:14:55.304Z,97748.63
2018-11-10T20:17:07.580Z,97748.19
2018-11-10T20:19:20.210Z,97752.44
2018-11-10T20:21:32.442Z,97753.41
2018-11-10T20:23:44.707Z,97753.31
2018-11-10T20:25:57.029Z,97761.20
2018-11-10T20:28:09.374Z,97759.42
2018-11-10T20:30:21.654Z,97768.52
2018-11-10T20:32:37.963Z,97767.71
2018-11-10T20:34:50.160Z,97757.05
2018-11-10T20:37:02.471Z,97749.24
2018-11-10T20:39:14.738Z,97754.31
2018-11-10T20:41:27.085Z,97752.87
2018-11-10T20:43:39.410Z,97756.77
2018-11-10T20:45:51.641Z,97749.70
2018-11-10T20:48:03.880Z,97755.13
2018-11-10T20:50:16.656Z,97758.28
2018-11-10T20:52:29.199Z,97756.42
2018-11-10T20:54:41.391Z,97757.12
2018-11-10T20:56:53.678Z,97751.36
2018-11-10T20:59:06.011Z,97753.13
2018-11-10T21:01:18.249Z,97751.61
2018-11-10T21:03:30.675Z,97752.87
2018-11-10T21:05:42.990Z,97748.97
2018-11-10T21:07:55.227Z,97747.10
2018-11-10T21:10:10.077Z,97750.39
2018-11-10T21:12:22.416Z,97752.83
2018-11-10T21:14:34.645Z,97751.52
2018-11-10T21:16:46.901Z,97750.73
2018-11-10T21:18:59.143Z,97754.29
2018-11-10T21:21:11.455Z,97746.48
2018-11-10T21:23:23.763Z,97749.21
2018-11-10T21:25:36.068Z,97751.91
2018-11-10T21:27:48.364Z,97752.70
2018-11-10T21:30:00.764Z,97760.36
2018-11-10T21:32:12.900Z,97755.38
2018-11-10T21:34:25.177Z,97759.06
2018-11-10T21:36:37.403Z,97762.06
2018-11-10T21:38:49.684Z,97767.22
2018-11-10T21:41:02.014Z,97752.11
2018-11-10T21:43:14.325Z,97750.03
2018-11-10T21:45:26.565Z,97747.58
2018-11-10T21:47:38.793Z,97745.41
2018-11-10T21:49:51.050Z,97737.30
2018-11-10T21:52:03.385Z,97743.63
2018-11-10T21:54:15.693Z,97741.36
2018-11-10T21:56:27.886Z,97751.20
2018-11-10T21:58:40.168Z,97756.19
2018-11-10T22:00:52.434Z,97752.63
2018-11-10T22:03:04.764Z,97748.39
2018-11-10T22:05:17.406Z,97749.56
2018-11-10T22:07:29.655Z,97751.00
2018-11-10T22:09:41.903Z,97753.72
2018-11-10T22:11:54.139Z,97757.23
2018-11-10T22:14:06.594Z,97761.83
2018-11-10T22:16:18.943Z,97760.53
2018-11-10T22:18:31.206Z,97748.00
2018-11-10T22:20:43.443Z,97755.57
2018-11-10T22:22:55.662Z,97755.66
2018-11-10T22:25:09.052Z,97761.95
2018-11-10T22:27:21.260Z,97761.89
2018-11-10T22:29:33.570Z,97758.47
2018-11-10T22:31:45.800Z,97767.22
2018-11-10T22:33:57.983Z,97766.66
2018-11-10T22:36:10.214Z,97770.29
2018-11-10T22:38:22.473Z,97771.80
2018-11-10T22:40:34.737Z,97786.09
2018-11-10T22:42:47.133Z,97789.11
2018-11-10T22:44:59.349Z,97790.67
2018-11-10T22:47:11.625Z,97788.02
2018-11-10T22:49:23.918Z,97793.61
2018-11-10T22:51:36.218Z,97795.81
2018-11-10T22:53:48.599Z,97796.77
2018-11-10T22:56:00.808Z,97799.84
2018-11-10T22:58:13.031Z,97800.10
2018-11-10T23:00:26.359Z,97803.14
2018-11-10T23:02:38.583Z,97811.63
2018-11-10T23:04:50.839Z,97811.12
2018-11-10T23:07:03.143Z,97810.85
2018-11-10T23:09:15.404Z,97809.55
2018-11-10T23:11:27.651Z,97812.63
2018-11-10T23:13:39.918Z,97807.10
2018-11-10T23:15:52.171Z,97820.09
2018-11-10T23:18:04.402Z,97827.27
2018-11-10T23:20:17.635Z,97825.73
2018-11-10T23:22:29.866Z,97825.27
2018-11-10T23:24:42.079Z,97822.66
2018-11-10T23:26:54.298Z,97821.01
2018-11-10T23:29:06.378Z,97823.96
2018-11-10T23:31:18.660Z,97821.84
2018-11-10T23:33:30.903Z,97818.50
2018-11-10T23:35:43.114Z,97814.39
2018-11-10T23:37:55.359Z,97822.75
2018-11-10T23:40:09.525Z,97820.94
2018-11-10T23:42:21.774Z,97825.40
2018-11-10T23:44:33.997Z,97835.44
2018-11-10T23:46:46.207Z,97835.91
2018-11-10T23:48:58.455Z,97848.08
2018-11-10T23:51:10.663Z,97851.86
2018-11-10T23:53:22.881Z,97861.42
2018-11-10T23:55:35.090Z,97865.44
2018-11-10T23:57:47.275Z,97870.09
2018-11-10T23:59:59.503Z,97866.78
